Time,TemperatureF,DewpointF,PressureIn,WindDirection,WindDirectionDegrees,WindSpeedMPH,WindSpeedGustMPH,Humidity,HourlyPrecipIn,Conditions,Clouds,dailyrainin,SoftwareType,DateUTC
2013-01-07 00:02:00,34.4,25.0,30.03,SW,216,13.0,22.0,68,0.00,,SKC,0.00,VWS V12.07,2013-01-07 08:02:00,
2013-01-07 00:12:00,34.1,25.0,30.02,SW,228,20.0,27.0,69,0.00,,SKC,0.00,VWS V12.07,2013-01-07 08:12:00,
2013-01-07 00:22:00,34.1,25.0,30.03,SW,222,16.0,28.0,69,0.00,,SKC,0.00,VWS V12.07,2013-01-07 08:22:00,
2013-01-07 00:32:00,34.0,24.9,30.02,SSW,200,16.0,22.0,69,0.00,,SKC,0.00,VWS V12.07,2013-01-07 08:32:00,
2013-01-07 00:42:00,33.7,24.6,30.02,SSW,208,13.0,25.0,69,0.00,,SKC,0.00,VWS V12.07,2013-01-07 08:42:00,
2013-01-07 00:52:00,33.3,24.9,30.02,SW,218,16.0,25.0,71,0.00,,SKC,0.00,VWS V12.07,2013-01-07 08:52:00,
2013-01-07 01:02:00,33.5,24.8,30.02,SW,231,12.0,28.0,70,0.00,,SKC,0.00,VWS V12.07,2013-01-07 09:02:00,
2013-01-07 01:12:00,34.1,24.3,30.02,SSW,212,21.0,38.0,67,0.00,,SKC,0.00,VWS V12.07,2013-01-07 09:12:00,
2013-01-07 01:22:00,33.5,24.1,30.01,SW,219,20.0,38.0,68,0.00,,SKC,0.00,VWS V12.07,2013-01-07 09:22:00,
2013-01-07 01:32:00,33.1,24.0,30.02,SW,218,18.0,18.0,69,0.00,,SKC,0.00,VWS V12.07,2013-01-07 09:32:00,
2013-01-07 01:42:00,33.2,24.5,30.00,SSW,201,8.0,23.0,70,0.00,,SKC,0.00,VWS V12.07,2013-01-07 09:42:00,
2013-01-07 01:52:00,33.4,24.7,30.01,South,191,20.0,29.0,70,0.00,,SKC,0.00,VWS V12.07,2013-01-07 09:52:00,
2013-01-07 02:02:00,33.1,24.4,30.00,WSW,242,18.0,25.0,70,0.00,,SKC,0.00,VWS V12.07,2013-01-07 10:02:00,
2013-01-07 02:12:00,32.8,24.5,30.01,SW,228,25.0,30.0,71,0.00,,SKC,0.00,VWS V12.07,2013-01-07 10:12:00,
2013-01-07 02:22:00,32.4,24.4,30.01,SSW,203,25.0,33.0,72,0.00,,SKC,0.00,VWS V12.07,2013-01-07 10:22:00,
2013-01-07 02:32:00,32.5,24.8,30.02,SW,224,16.0,29.0,73,0.00,,SKC,0.00,VWS V12.07,2013-01-07 10:32:00,
2013-01-07 02:42:00,32.5,25.1,30.02,SW,229,20.0,32.0,74,0.00,,SKC,0.00,VWS V12.07,2013-01-07 10:42:00,
2013-01-07 02:52:00,32.3,25.0,30.02,WSW,237,17.0,34.0,74,0.00,,SKC,0.00,VWS V12.07,2013-01-07 10:52:00,
2013-01-07 03:02:00,32.3,25.3,30.02,SW,223,25.0,30.0,75,0.00,,SKC,0.00,VWS V12.07,2013-01-07 11:02:00,
2013-01-07 03:12:00,32.2,25.5,30.02,SW,216,21.0,33.0,76,0.00,,SKC,0.00,VWS V12.07,2013-01-07 11:12:00,
2013-01-07 03:22:00,32.2,25.8,30.02,SW,216,20.0,33.0,77,0.00,,SKC,0.00,VWS V12.07,2013-01-07 11:22:00,
2013-01-07 03:32:00,32.4,26.0,30.01,SW,220,20.0,36.0,77,0.00,,SKC,0.00,VWS V12.07,2013-01-07 11:32:00,
2013-01-07 03:42:00,32.8,27.0,30.01,SW,222,27.0,36.0,79,0.00,,SKC,0.00,VWS V12.07,2013-01-07 11:42:00,
2013-01-07 03:52:00,32.9,26.8,29.99,SW,216,25.0,36.0,78,0.00,,SKC,0.00,VWS V12.07,2013-01-07 11:52:00,
2013-01-07 04:02:00,32.6,26.5,30.00,SW,225,19.0,34.0,78,0.00,,SKC,0.00,VWS V12.07,2013-01-07 12:02:00,
2013-01-07 04:12:00,32.6,26.8,29.98,SW,229,16.0,34.0,79,0.00,,SKC,0.00,VWS V12.07,2013-01-07 12:12:00,
2013-01-07 04:22:00,32.9,27.1,29.98,SW,217,17.0,41.0,79,0.00,,SKC,0.00,VWS V12.07,2013-01-07 12:22:00,
2013-01-07 04:32:00,33.0,27.2,29.99,SW,229,26.0,33.0,79,0.00,,SKC,0.00,VWS V12.07,2013-01-07 12:32:00,
2013-01-07 04:42:00,33.0,27.5,29.98,SW,224,24.0,34.0,80,0.00,,SKC,0.00,VWS V12.07,2013-01-07 12:42:00,
2013-01-07 04:52:00,33.3,27.8,30.00,SW,225,27.0,40.0,80,0.00,,SKC,0.00,VWS V12.07,2013-01-07 12:52:00,
2013-01-07 05:02:00,33.7,28.2,30.00,SW,230,23.0,30.0,80,0.00,,SKC,0.00,VWS V12.07,2013-01-07 13:02:00,
2013-01-07 05:12:00,33.7,28.2,30.01,WSW,238,17.0,35.0,80,0.00,,SKC,0.00,VWS V12.07,2013-01-07 13:12:00,
2013-01-07 05:22:00,34.0,29.1,30.00,SW,224,21.0,35.0,82,0.00,,SKC,0.00,VWS V12.07,2013-01-07 13:22:00,
2013-01-07 05:32:00,34.1,29.2,30.01,SW,220,28.0,30.0,82,0.00,,SKC,0.00,VWS V12.07,2013-01-07 13:32:00,
2013-01-07 05:42:00,34.3,29.4,30.02,SW,236,11.0,34.0,82,0.00,,SKC,0.00,VWS V12.07,2013-01-07 13:42:00,
2013-01-07 05:52:00,34.3,29.7,30.01,SW,227,23.0,34.0,83,0.00,,SKC,0.00,VWS V12.07,2013-01-07 13:52:00,
2013-01-07 06:02:00,34.4,29.8,30.00,SW,226,22.0,31.0,83,0.00,,SKC,0.00,VWS V12.07,2013-01-07 14:02:00,
2013-01-07 06:12:00,34.3,29.7,30.01,SW,217,25.0,31.0,83,0.00,,SKC,0.00,VWS V12.07,2013-01-07 14:12:00,
2013-01-07 06:22:00,34.4,30.1,29.99,SW,215,18.0,31.0,84,0.00,,SKC,0.00,VWS V12.07,2013-01-07 14:22:00,
2013-01-07 06:32:00,34.5,30.2,30.00,SW,229,16.0,25.0,84,0.00,,SKC,0.00,VWS V12.07,2013-01-07 14:32:00,
2013-01-07 06:42:00,34.7,30.7,30.00,SW,216,25.0,25.0,85,0.00,,SKC,0.00,VWS V12.07,2013-01-07 14:42:00,
2013-01-07 06:52:00,35.1,31.0,29.99,SW,225,18.0,26.0,85,0.00,,SKC,0.00,VWS V12.07,2013-01-07 14:52:00,
2013-01-07 07:02:00,35.3,31.2,29.97,SW,226,28.0,28.0,85,0.00,,SKC,0.00,VWS V12.07,2013-01-07 15:02:00,
2013-01-07 07:12:00,35.5,31.5,29.97,SW,219,17.0,36.0,85,0.00,,SKC,0.00,VWS V12.07,2013-01-07 15:12:00,
2013-01-07 07:22:00,35.5,31.5,29.97,SSW,211,24.0,36.0,85,0.00,,SKC,0.00,VWS V12.07,2013-01-07 15:22:00,
2013-01-07 07:32:00,35.9,31.8,29.97,SSW,213,14.0,27.0,85,0.00,,SKC,0.00,VWS V12.07,2013-01-07 15:32:00,
2013-01-07 07:42:00,35.8,31.7,29.97,SW,216,24.0,31.0,85,0.00,,SKC,0.00,VWS V12.07,2013-01-07 15:42:00,
2013-01-07 07:52:00,35.8,31.7,29.98,SW,223,18.0,33.0,85,0.00,,SKC,0.00,VWS V12.07,2013-01-07 15:52:00,
2013-01-07 08:02:00,36.2,32.1,29.98,SW,231,17.0,31.0,85,0.00,,SKC,0.00,VWS V12.07,2013-01-07 16:02:00,
2013-01-07 08:12:00,36.4,32.3,29.99,SW,221,34.0,34.0,85,0.00,,SKC,0.00,VWS V12.07,2013-01-07 16:12:00,
2013-01-07 08:22:00,37.1,33.0,30.00,SW,224,22.0,38.0,85,0.00,,SKC,0.00,VWS V12.07,2013-01-07 16:22:00,
2013-01-07 08:32:00,37.4,33.0,29.99,SW,233,26.0,32.0,84,0.00,,SKC,0.00,VWS V12.07,2013-01-07 16:32:00,
2013-01-07 08:42:00,38.0,33.3,30.00,SW,224,14.0,32.0,83,0.00,,SKC,0.00,VWS V12.07,2013-01-07 16:42:00,
2013-01-07 08:52:00,38.4,33.7,30.01,SW,219,22.0,32.0,83,0.00,,SKC,0.00,VWS V12.07,2013-01-07 16:52:00,
2013-01-07 09:02:00,38.8,33.8,30.01,SW,224,22.0,25.0,82,0.00,,SKC,0.00,VWS V12.07,2013-01-07 17:02:00,
2013-01-07 09:12:00,39.5,33.8,30.01,SW,216,20.0,30.0,80,0.00,,SKC,0.00,VWS V12.07,2013-01-07 17:12:00,
2013-01-07 09:22:00,41.0,34.0,30.02,SW,219,21.0,36.0,76,0.00,,SKC,0.00,VWS V12.07,2013-01-07 17:22:00,
2013-01-07 09:32:00,41.7,34.0,30.02,SW,219,17.0,27.0,74,0.00,,SKC,0.00,VWS V12.07,2013-01-07 17:32:00,
2013-01-07 09:42:00,41.6,33.6,30.02,SW,225,23.0,29.0,73,0.00,,SKC,0.00,VWS V12.07,2013-01-07 17:42:00,
2013-01-07 09:52:00,41.1,33.5,30.03,SSW,211,16.0,40.0,74,0.00,,SKC,0.00,VWS V12.07,2013-01-07 17:52:00,
2013-01-07 10:02:00,41.0,33.7,30.03,SW,219,13.0,25.0,75,0.00,,SKC,0.00,VWS V12.07,2013-01-07 18:02:00,
2013-01-07 10:12:00,41.0,33.7,30.05,SW,227,16.0,27.0,75,0.00,,SKC,0.00,VWS V12.07,2013-01-07 18:12:00,
2013-01-07 10:22:00,41.4,34.1,30.04,SW,224,10.0,28.0,75,0.00,,SKC,0.00,VWS V12.07,2013-01-07 18:22:00,
2013-01-07 10:32:00,41.8,34.1,30.06,SW,232,17.0,27.0,74,0.00,,SKC,0.00,VWS V12.07,2013-01-07 18:32:00,
2013-01-07 10:42:00,42.2,34.2,30.06,SW,218,19.0,27.0,73,0.00,,SKC,0.00,VWS V12.07,2013-01-07 18:42:00,
2013-01-07 10:52:00,42.1,34.1,30.05,SW,220,17.0,27.0,73,0.00,,SKC,0.00,VWS V12.07,2013-01-07 18:52:00,
2013-01-07 11:02:00,42.0,34.3,30.05,SSW,207,18.0,24.0,74,0.00,,SKC,0.00,VWS V12.07,2013-01-07 19:02:00,
2013-01-07 11:12:00,42.1,34.4,30.05,SW,222,18.0,32.0,74,0.00,,SKC,0.00,VWS V12.07,2013-01-07 19:12:00,
2013-01-07 11:24:00,42.3,34.6,30.05,SW,224,25.0,32.0,74,0.00,,SKC,0.00,VWS V12.07,2013-01-07 19:24:00,
2013-01-07 11:32:00,42.1,34.4,30.04,SW,221,26.0,33.0,74,0.00,,SKC,0.00,VWS V12.07,2013-01-07 19:32:00,
2013-01-07 11:42:00,42.0,34.3,30.04,SW,229,16.0,33.0,74,0.00,,SKC,0.00,VWS V12.07,2013-01-07 19:42:00,
2013-01-07 11:52:00,42.0,34.3,30.04,SW,223,22.0,33.0,74,0.00,,SKC,0.00,VWS V12.07,2013-01-07 19:52:00,
2013-01-07 12:02:00,42.1,34.8,30.04,SW,225,21.0,28.0,75,0.00,,SKC,0.00,VWS V12.07,2013-01-07 20:02:00,
2013-01-07 12:12:00,42.0,34.7,30.04,SW,220,19.0,30.0,75,0.00,,SKC,0.00,VWS V12.07,2013-01-07 20:12:00,
2013-01-07 12:22:00,42.3,35.3,30.03,SSW,213,20.0,30.0,76,0.00,,SKC,0.00,VWS V12.07,2013-01-07 20:22:00,
2013-01-07 12:32:00,42.8,35.4,30.05,SW,226,12.0,21.0,75,0.00,,SKC,0.00,VWS V12.07,2013-01-07 20:32:00,
2013-01-07 12:42:00,42.6,35.2,30.04,SSW,201,12.0,23.0,75,0.00,,SKC,0.00,VWS V12.07,2013-01-07 20:42:00,
2013-01-07 12:52:00,42.7,35.0,30.05,SSW,195,9.0,23.0,74,0.00,,SKC,0.00,VWS V12.07,2013-01-07 20:52:00,
2013-01-07 13:02:00,43.1,35.4,30.03,SSW,194,10.0,12.0,74,0.00,,SKC,0.00,VWS V12.07,2013-01-07 21:02:00,
2013-01-07 13:13:00,43.4,35.0,30.04,SW,219,14.0,21.0,72,0.00,,SKC,0.00,VWS V12.07,2013-01-07 21:13:00,
2013-01-07 13:23:00,43.5,34.7,30.03,SSW,206,22.0,24.0,71,0.00,,SKC,0.00,VWS V12.07,2013-01-07 21:23:00,
2013-01-07 13:33:00,44.0,34.9,30.03,SW,220,17.0,21.0,70,0.00,,SKC,0.00,VWS V12.07,2013-01-07 21:33:00,
2013-01-07 13:43:00,44.7,34.8,30.05,SW,225,21.0,25.0,68,0.00,,SKC,0.00,VWS V12.07,2013-01-07 21:43:00,
2013-01-07 13:53:00,44.6,34.7,30.05,SW,236,14.0,27.0,68,0.00,,SKC,0.00,VWS V12.07,2013-01-07 21:53:00,
2013-01-07 14:04:00,44.4,34.9,30.06,SW,226,24.0,24.0,69,0.00,,SKC,0.00,VWS V12.07,2013-01-07 22:04:00,
2013-01-07 14:13:00,44.3,34.8,30.04,SW,215,5.0,26.0,69,0.00,,SKC,0.00,VWS V12.07,2013-01-07 22:13:00,
2013-01-07 14:22:00,44.0,34.9,30.06,SSW,204,27.0,28.0,70,0.00,,SKC,0.00,VWS V12.07,2013-01-07 22:22:00,
2013-01-07 14:32:00,44.2,35.0,30.06,WSW,243,12.0,22.0,70,0.00,,SKC,0.00,VWS V12.07,2013-01-07 22:32:00,
2013-01-07 14:42:00,44.7,34.8,30.06,WSW,237,13.0,23.0,68,0.00,,SKC,0.00,VWS V12.07,2013-01-07 22:42:00,
2013-01-07 14:52:00,45.3,34.6,30.06,SW,222,25.0,32.0,66,0.00,,SKC,0.00,VWS V12.07,2013-01-07 22:52:00,
2013-01-07 15:02:00,45.5,34.4,30.04,SW,226,21.0,21.0,65,0.00,,SKC,0.00,VWS V12.07,2013-01-07 23:02:00,
2013-01-07 15:12:00,45.5,33.7,30.05,SW,214,9.0,23.0,63,0.00,,SKC,0.00,VWS V12.07,2013-01-07 23:12:00,
2013-01-07 15:22:00,45.3,33.1,30.06,SW,230,13.0,23.0,62,0.00,,SKC,0.00,VWS V12.07,2013-01-07 23:22:00,
2013-01-07 15:32:00,45.2,33.8,30.06,WSW,243,9.0,14.0,64,0.00,,SKC,0.00,VWS V12.07,2013-01-07 23:32:00,
2013-01-07 15:42:00,45.2,33.4,30.07,SW,232,7.0,21.0,63,0.00,,SKC,0.00,VWS V12.07,2013-01-07 23:42:00,
2013-01-07 15:52:00,44.8,32.2,30.09,SW,234,14.0,27.0,61,0.00,,SKC,0.00,VWS V12.07,2013-01-07 23:52:00,
2013-01-07 16:02:00,44.7,31.3,30.09,West,260,9.0,12.0,59,0.00,,SKC,0.00,VWS V12.07,2013-01-08 00:02:00,
2013-01-07 16:12:00,44.4,30.6,30.07,SW,234,6.0,12.0,58,0.00,,SKC,0.00,VWS V12.07,2013-01-08 00:12:00,
2013-01-07 16:22:00,44.0,31.0,30.07,SW,223,9.0,13.0,60,0.00,,SKC,0.00,VWS V12.07,2013-01-08 00:22:00,
2013-01-07 16:32:00,43.4,30.5,30.09,SW,220,10.0,12.0,60,0.00,,SKC,0.00,VWS V12.07,2013-01-08 00:32:00,
2013-01-07 16:42:00,43.5,30.1,30.07,SW,235,10.0,18.0,59,0.00,,SKC,0.00,VWS V12.07,2013-01-08 00:42:00,
2013-01-07 16:52:00,42.9,30.4,30.07,SW,226,11.0,18.0,61,0.00,,SKC,0.00,VWS V12.07,2013-01-08 00:52:00,
2013-01-07 17:02:00,42.4,30.3,30.07,SW,236,6.0,16.0,62,0.00,,SKC,0.00,VWS V12.07,2013-01-08 01:02:00,
2013-01-07 17:12:00,42.1,30.4,30.07,WSW,257,8.0,21.0,63,0.00,,SKC,0.00,VWS V12.07,2013-01-08 01:12:00,
2013-01-07 17:22:00,42.0,30.3,30.08,WSW,245,5.0,21.0,63,0.00,,SKC,0.00,VWS V12.07,2013-01-08 01:22:00,
2013-01-07 17:32:00,41.5,30.6,30.07,WSW,237,11.0,16.0,65,0.00,,SKC,0.00,VWS V12.07,2013-01-08 01:32:00,
2013-01-07 17:42:00,41.4,30.5,30.07,SW,230,12.0,16.0,65,0.00,,SKC,0.00,VWS V12.07,2013-01-08 01:42:00,
2013-01-07 17:52:00,41.9,30.2,30.09,SW,226,16.0,17.0,63,0.00,,SKC,0.00,VWS V12.07,2013-01-08 01:52:00,
2013-01-07 18:02:00,41.8,30.1,30.08,SSW,210,16.0,20.0,63,0.00,,SKC,0.00,VWS V12.07,2013-01-08 02:02:00,
2013-01-07 18:12:00,40.8,30.3,30.07,SW,219,16.0,21.0,66,0.00,,SKC,0.00,VWS V12.07,2013-01-08 02:12:00,
2013-01-07 18:22:00,40.6,30.5,30.08,SW,224,8.0,21.0,67,0.00,,SKC,0.00,VWS V12.07,2013-01-08 02:22:00,
2013-01-07 18:32:00,40.7,30.2,30.08,SW,223,7.0,17.0,66,0.00,,SKC,0.00,VWS V12.07,2013-01-08 02:32:00,
2013-01-07 18:42:00,40.7,30.2,30.08,SSW,202,12.0,21.0,66,0.00,,SKC,0.00,VWS V12.07,2013-01-08 02:42:00,
2013-01-07 18:52:00,40.5,30.0,30.07,SW,222,9.0,21.0,66,0.00,,SKC,0.00,VWS V12.07,2013-01-08 02:52:00,
2013-01-07 19:02:00,40.1,30.0,30.08,SW,215,17.0,19.0,67,0.00,,SKC,0.00,VWS V12.07,2013-01-08 03:02:00,
2013-01-07 19:12:00,40.4,30.0,30.07,SW,217,13.0,23.0,66,0.00,,SKC,0.00,VWS V12.07,2013-01-08 03:12:00,
2013-01-07 19:22:00,40.5,29.7,30.08,SW,222,13.0,23.0,65,0.00,,SKC,0.00,VWS V12.07,2013-01-08 03:22:00,
2013-01-07 19:32:00,40.5,29.7,30.08,SW,224,15.0,20.0,65,0.00,,SKC,0.00,VWS V12.07,2013-01-08 03:32:00,
2013-01-07 19:42:00,40.5,29.7,30.08,SW,229,9.0,20.0,65,0.00,,SKC,0.00,VWS V12.07,2013-01-08 03:42:00,
2013-01-07 19:52:00,40.7,29.5,30.07,WSW,250,14.0,22.0,64,0.00,,SKC,0.00,VWS V12.07,2013-01-08 03:52:00,
2013-01-07 20:02:00,40.7,29.1,30.07,West,261,7.0,19.0,63,0.00,,SKC,0.00,VWS V12.07,2013-01-08 04:02:00,
2013-01-07 20:12:00,40.7,28.7,30.09,West,264,11.0,22.0,62,0.00,,SKC,0.00,VWS V12.07,2013-01-08 04:12:00,
2013-01-07 20:22:00,40.7,28.7,30.10,WSW,239,7.0,22.0,62,0.00,,SKC,0.00,VWS V12.07,2013-01-08 04:22:00,
2013-01-07 20:32:00,40.5,28.1,30.08,SW,219,7.0,14.0,61,0.00,,SKC,0.00,VWS V12.07,2013-01-08 04:32:00,
2013-01-07 20:42:00,40.5,28.1,30.08,WSW,248,11.0,19.0,61,0.00,,SKC,0.00,VWS V12.07,2013-01-08 04:42:00,
2013-01-07 20:52:00,40.8,27.2,30.09,SW,229,5.0,23.0,58,0.00,,SKC,0.00,VWS V12.07,2013-01-08 04:52:00,
2013-01-07 21:02:00,40.7,27.5,30.08,SW,217,18.0,19.0,59,0.00,,SKC,0.00,VWS V12.07,2013-01-08 05:02:00,
2013-01-07 21:12:00,40.2,27.4,30.09,SW,224,11.0,21.0,60,0.00,,SKC,0.00,VWS V12.07,2013-01-08 05:12:00,
2013-01-07 21:22:00,40.3,28.3,30.09,SW,235,15.0,21.0,62,0.00,,SKC,0.00,VWS V12.07,2013-01-08 05:22:00,
2013-01-07 21:32:00,40.3,28.7,30.10,SW,227,16.0,23.0,63,0.00,,SKC,0.00,VWS V12.07,2013-01-08 05:32:00,
2013-01-07 21:42:00,40.1,28.5,30.07,SW,227,7.0,23.0,63,0.00,,SKC,0.00,VWS V12.07,2013-01-08 05:42:00,
2013-01-07 21:52:00,40.0,28.4,30.08,WSW,254,10.0,30.0,63,0.00,,SKC,0.00,VWS V12.07,2013-01-08 05:52:00,
2013-01-07 22:02:00,40.1,28.1,30.10,WSW,247,7.0,20.0,62,0.00,,SKC,0.00,VWS V12.07,2013-01-08 06:02:00,
2013-01-07 22:12:00,40.1,28.5,30.08,SW,222,12.0,21.0,63,0.00,,SKC,0.00,VWS V12.07,2013-01-08 06:12:00,
2013-01-07 22:22:00,40.0,28.0,30.08,WSW,246,6.0,21.0,62,0.00,,SKC,0.00,VWS V12.07,2013-01-08 06:22:00,
2013-01-07 22:32:00,39.6,28.1,30.09,WSW,249,16.0,18.0,63,0.00,,SKC,0.00,VWS V12.07,2013-01-08 06:32:00,
2013-01-07 22:42:00,39.5,28.0,30.08,SW,230,10.0,19.0,63,0.00,,SKC,0.00,VWS V12.07,2013-01-08 06:42:00,
2013-01-07 22:52:00,39.7,28.1,30.08,WSW,244,5.0,19.0,63,0.00,,SKC,0.00,VWS V12.07,2013-01-08 06:52:00,
2013-01-07 23:03:00,40.0,28.0,30.09,SW,228,7.0,20.0,62,0.00,,SKC,0.00,VWS V12.07,2013-01-08 07:03:00,
2013-01-07 23:12:00,40.0,28.0,30.10,SW,235,7.0,21.0,62,0.00,,SKC,0.00,VWS V12.07,2013-01-08 07:12:00,
2013-01-07 23:22:00,40.0,28.4,30.10,West,266,14.0,21.0,63,0.00,,SKC,0.00,VWS V12.07,2013-01-08 07:22:00,
2013-01-07 23:32:00,39.8,28.6,30.11,WSW,237,12.0,19.0,64,0.00,,SKC,0.00,VWS V12.07,2013-01-08 07:32:00,
2013-01-07 23:42:00,39.5,29.1,30.10,SW,232,11.0,19.0,66,0.00,,SKC,0.00,VWS V12.07,2013-01-08 07:42:00,
2013-01-07 23:52:00,39.4,29.0,30.11,WSW,249,11.0,19.0,66,0.00,,SKC,0.00,VWS V12.07,2013-01-08 07:52:00,